Tiempo atmosférico en la estación meteorológica de Puerto Alto del León, Madrid (1532 m.)



Fecha
DESCASC
Temp. máxima en grados centígrados (hora)
DESCASC
Temp. mínima en grados centígrados (hora)
DESCASC
Temp. media en grados centígrados
DESCASC
Racha de viento máxima en m/sg (hora)
DESCASC
Velocidad máxima media en intervalos de 10 minutos(hora)
DESCASC
Precipitaciones diarias en mm
DESCASC
Precipitaciones de 00:00 a 06:00 en mm
DESCASC
Precipitaciones de 06:00 a 12:00 en mm
DESCASC
Precipitaciones de 12:00 a 18:00 en mm
DESCASC
Precipitaciones de 18:00 a 24:00 en mm
DESCASC
28-02-2021 6 (16:30) -1 (09:10) 2.5 13.06 (21:10) 7.22 (22:10) 0.1 0 0 0 0.1
27-02-2021 12.2 (13:40) 4.2 (22:30) 8.2 7.5 (00:50) 4.72 (00:10) 0 0 0 0 0
26-02-2021 8.6 (15:00) 2 (09:10) 5.3 11.39 (09:00) 7.5 (02:50) 0 0 0 0 0
25-02-2021 5.3 (16:20) 0.9 (00:00) 3.1 13.89 (02:30) 8.33 (02:30) 0 0 0 0 0
24-02-2021 4.6 (17:50) 0.2 (00:00) 2.4 16.11 (05:10) 8.89 (05:10) 0 0 0 0 0
23-02-2021 4.7 (16:20) -1.2 (-00:0) 1.7 12.22 (18:30) 7.22 (18:10) 0 0 0 0 0
22-02-2021 -0.1 (17:20) -2.6 (-00:0) -1.3 18.06 (00:10) 12.5 (00:10) 1.5 0.7 0.2 0.6 0
21-02-2021 3.8 (00:00) -2 (-00:0) 0.9 18.33 (01:00) 12.78 (23:59) 18 0 0 7.2 10.8
20-02-2021 8.7 (15:30) 0.7 (00:00) 4.7 16.39 (13:20) 8.33 (13:10) 0 0 0 0 0
19-02-2021 8.6 (15:00) 1 (00:00) 4.8 12.78 (14:40) 6.67 (13:20) 0 0 0 0 0
18-02-2021 9.7 (15:50) 2.7 (00:00) 6.2 12.22 (19:30) 6.94 (19:00) 0 0 0 0 0
17-02-2021 8.6 (16:50) 3.6 (00:00) 6.1 9.44 (20:20) 4.72 (20:30) 0 0 0 0 0
16-02-2021 11.9 (14:10) 1.8 (00:00) 6.8 12.78 (13:00) 6.94 (01:10) 0 0 0 0 0
15-02-2021 6.3 (16:00) 1.2 (00:00) 3.8 11.67 (15:30) 7.78 (15:20) 0 0 0 0 0
14-02-2021 7.8 (15:20) 1.7 (00:00) 4.8 8.89 (23:40) 5.83 (11:10) 0 0 0 0 0
13-02-2021 7.3 (16:10) -0.1 (00:00) 3.6 13.89 (14:40) 10 (14:30) 0 0 0 0 0
12-02-2021 5.6 (00:10) 1.6 (00:00) 3.6 22.78 (07:50) 15.56 (07:50) 4.2 2 2.2 0 0
11-02-2021 7.7 (12:10) 1.9 (00:00) 4.8 15.28 (00:30) 9.72 (00:30) 0.6 0 0 0.6 0
10-02-2021 4.9 (16:20) -0.7 (-00:0) 2.1 25.83 (08:00) 15.83 (06:00) 2 1.8 0.2 0 0
09-02-2021 1.9 (12:00) -1.6 (-00:0) 0.1 23.89 (14:00) 13.89 (15:00) 9.9 0.6 4.9 3.9 0.5
08-02-2021 1.4 (15:10) -0.8 (-00:0) 0.3 23.89 (19:20) 13.61 (22:10) 7 5.2 0.4 0.9 0.5
07-02-2021 1.8 (16:30) -2.4 (-00:0) -0.3 13.89 (16:40) 9.17 (16:10) 1.2 0 0 0.1 1.1
06-02-2021 3.5 (14:00) -0.5 (-00:0) 1.5 11.94 (04:10) 7.78 (23:59) 14.6 7.2 3.1 4.3 0
05-02-2021 8.5 (13:10) 2.2 (00:00) 5.4 15.28 (21:20) 8.06 (21:20) 13.5 0.8 0 0 12.7
04-02-2021 5.1 (01:20) 3.3 (00:00) 4.2 12.78 (12:30) 7.22 (12:20) 4.6 1.1 3.1 0.3 0.1
03-02-2021 5.1 (23:50) 2 (00:00) 3.5 8.89 (06:50) 5.83 (07:10) 6.3 0 1 0.3 5
02-02-2021 7.1 (11:20) 2.4 (00:00) 4.8 17.22 (05:10) 11.67 (05:10) 0 0 0 0 0
01-02-2021 5.8 (23:59) 1.9 (00:00) 3.9 26.94 (02:00) 16.39 (00:20) 0 0 0 0 0
31-01-2021 6.5 (16:40) -0.1 (00:00) 3.2 27.22 (15:10) 17.22 (00:10) 10.8 0 8 2.8 0

Gráficas

Temp. máximas Temp. mínimas Temp. medias Precipitaciones Rachas de viento máximas Velocidades máximas media en intervalos de 10 minutos

Datos horarios

Fecha y hora oficial Temperatura (ºC) Velocidad del viento (km/h) Dirección del viento Racha (km/h) Dirección de racha Precipitación (mm) Presión (hPa) Tendencia (hPa) Humedad (%)
2021-03-01 23:00:00 2.2 19 Este 35 Este 0.1 850.5 0.5 81
2021-03-01 22:00:00 2.3 21 Este 34 Sudeste 0.1 850.4 1 81
2021-03-01 21:00:00 2.4 17 Este 31 Este 0.1 850.3 1.9 81
2021-03-01 20:00:00 2.3 14 Este 36 Sudeste 0.4 850 1.7 81
2021-03-01 19:00:00 2.2 21 Sudeste 43 Este 1.3 849.4 1.4 81
2021-03-01 18:00:00 2.1 25 Este 46 Sudeste 1.4 848.4 0.3 81
2021-03-01 17:00:00 2 23 Este 39 Sudeste 0.3 848.3 -0.3 81
2021-03-01 16:00:00 1.9 25 Este 41 Sudeste 0.2 848 -1.2 80
2021-03-01 15:00:00 1.7 23 Este 42 Este 0.6 848.1 -- 81
2021-03-01 14:00:00 1.3 24 Este 42 Sudeste 0.9 848.6 -- 80
2021-03-01 13:00:00 1.1 24 Sudeste 42 Este 1.2 849.2 -- 80
2021-03-01 12:00:00 1.2 24 Sudeste 40 Sudeste 1.6 849.2 -- 81
2021-03-01 11:00:00 0.9 19 Este 37 Sudeste 0.2 849.2 -- 81
2021-03-01 10:00:00 0.8 18 Este 33 Este 0 849.2 -- 81
2021-03-01 09:00:00 0.6 20 Sudeste 39 Este 0 848.9 -- 81
2021-03-01 08:00:00 0.4 23 Sudeste 36 Este 0 848.5 -- 81
2021-03-01 07:00:00 0.4 22 Este 40 Este 0 848.5 -- 81
2021-03-01 06:00:00 0.2 26 Sudeste 40 Sudeste 0.1 848.3 -- 81
2021-03-01 05:00:00 0.1 24 Este 40 Este 0.2 848.4 -- 81
2021-03-01 04:00:00 0 21 Este 38 Este 0.3 848.7 -- 81
2021-03-01 03:00:00 0.1 21 Este 39 Este 0 848.9 -- 81
2021-03-01 02:00:00 0.5 21 Sudeste 46 Sudeste 0 848.7 -- 81
2021-03-01 01:00:00 0.9 28 Este 50 Este 0.2 848.2 -- 81
2021-03-01 00:00:00 1.6 24 Sudeste 45 Sudeste 0.1 848.6 -- 80
2021-02-28 23:00:00 1.8 24 Sudeste 44 Sudeste 0 848.4 -- 77
2021-02-28 22:00:00 2.4 23 Sudeste 47 Sudeste 0 848 -- 71
2021-02-28 21:00:00 2.8 26 Sudeste 46 Este 0 847.8 -- 65
2021-02-28 20:00:00 3.6 24 Sudeste 40 Este 0 847.6 -- 63
2021-02-28 19:00:00 3.9 17 Sudeste 34 Este 0 847.3 -- 64
2021-02-28 18:00:00 4.6 18 Este 35 Sudeste 0 847 -- 56
2021-02-28 17:00:00 5.2 21 Sudeste 37 Este 0 847.1 -- 51
2021-02-28 16:00:00 5 22 Este 38 Sudeste 0 847.4 -- 53
2021-02-28 15:00:00 4.1 23 Sudeste 41 Este 0 847.6 -- 52
2021-02-28 14:00:00 3.5 22 Sudeste 38 Sudeste 0 848 -- 56
2021-02-28 13:00:00 2.4 23 Sudeste 39 Este 0 848.7 -- 59
2021-02-28 12:00:00 2.2 23 Sudeste 37 Sudeste 0 848.9 -- 61
2021-02-28 11:00:00 0.7 23 Este 38 Sudeste 0 849.1 -- 75
2021-02-28 10:00:00 -0.4 25 Este 38 Sudeste 0 849 -- 79
2021-02-28 09:00:00 -0.8 26 Este 39 Este 0 848.8 -- 69
2021-02-28 08:00:00 0.1 21 Sudeste 29 Sudeste 0 848.4 -- 56
2021-02-28 07:00:00 0.6 19 Sudeste 25 Este 0 848.6 -- 55
2021-02-28 06:00:00 1.1 18 Sudeste 25 Sudeste 0 848.9 -- 48
2021-02-28 05:00:00 2 17 Sudeste 25 Este 0 849.1 -- 45
2021-02-28 04:00:00 3.2 18 Sudeste 28 Sudeste 0 849.5 -- 42
2021-02-28 03:00:00 3.7 17 Sudeste 27 Este 0 850.1 -- 42
2021-02-28 02:00:00 4.1 17 Sudeste 24 Sur 0 850.4 -- 46
2021-02-28 01:00:00 4.8 17 Sudeste 25 Sudeste 0 850.7 -- 46
2021-02-28 00:00:00 5.7 13 Sudeste 20 Este 0 851 -- 41
2021-02-27 23:00:00 5.2 5 Oeste 12 Oeste 0 851.4 -- 60
2021-02-27 22:00:00 4.7 10 Oeste 15 Noroeste 0 851.3 -- 61
2021-02-27 21:00:00 5.6 10 Oeste 15 Oeste 0 851.2 -- 54
2021-02-27 20:00:00 6.3 11 Oeste 20 Oeste 0 851.7 -- 51
2021-02-27 19:00:00 7.1 13 Oeste 18 Oeste 0 851.8 -- 49
2021-02-27 18:00:00 8.9 13 Oeste 20 Oeste 0 852.2 -- 39
2021-02-27 17:00:00 10.3 15 Oeste 22 Noroeste 0 852.4 -- 31
2021-02-27 16:00:00 11 14 Oeste 22 Oeste 0 852.6 -- 29
2021-02-27 15:00:00 11.7 7 Noroeste 16 Noroeste 0 853.2 -- 30
2021-02-27 14:00:00 11.5 0 Calma 15 Noroeste 0 853.9 -- 27
2021-02-27 13:00:00 11.4 6 Sudeste 16 Sur 0 854.5 -- 21
2021-02-27 12:00:00 10 5 Oeste 12 Este 0 854.8 -- 29
2021-02-27 11:00:00 9.7 9 Sudeste 18 Sudeste 0 854.7 -- 22
2021-02-27 10:00:00 8.6 9 Sudeste 19 Este 0 854.9 -- 25
2021-02-27 09:00:00 7.5 5 Sudeste 13 Este 0 854.9 -- 27
2021-02-27 08:00:00 6.2 7 Sudeste -- -- -- 854.6 -- 29
2021-02-27 07:00:00 6.1 9 Sudeste 19 Este 0 854.7 -- 31
2021-02-27 06:00:00 5.7 5 Este 16 Sudeste 0 854.8 -- 33
2021-02-27 05:00:00 4.8 9 Sudeste 19 Sudeste 0 855 -- 39
2021-02-27 04:00:00 4.8 13 Sudeste 24 Este 0 855 -- 43
2021-02-27 03:00:00 4.6 17 Sudeste 26 Este 0 855.6 -- 45
2021-02-27 02:00:00 4.7 15 Sudeste 25 Sudeste 0 855.8 -- 44
2021-02-27 01:00:00 5.8 17 Sudeste 27 Este 0 856.1 -- 39
2021-02-27 00:00:00 5.4 17 Sudeste 26 Sudeste 0 856.2 -- 42
2021-02-26 23:00:00 5.7 14 Sudeste 21 Sudeste 0 856.4 -- 44
2021-02-26 22:00:00 5.7 9 Sudeste 16 Sudeste 0 856.5 -- 46
2021-02-26 21:00:00 5.4 9 Sudeste 17 Sudeste 0 856.4 -- 49
2021-02-26 20:00:00 5.4 12 Sudeste 19 Este 0 856.2 -- 53
2021-02-26 19:00:00 5.7 13 Sudeste 18 Sudeste 0 856.1 -- 49
2021-02-26 18:00:00 6.4 12 Sudeste 20 Sudeste 0 855.9 -- 47
2021-02-26 17:00:00 7.2 12 Sudeste 22 Este 0 855.7 -- 43
2021-02-26 16:00:00 7.9 14 Sudeste 27 Este 0 855.8 -- 41
2021-02-26 15:00:00 8.5 15 Sudeste 28 Sudeste 0 856 -- 42
2021-02-26 14:00:00 6.8 19 Sudeste 32 Este 0 856.3 -- 47
2021-02-26 13:00:00 6.3 18 Este 37 Sudeste 0 856.7 -- 49
2021-02-26 12:00:00 5.8 20 Sudeste 41 Sudeste 0 856.7 -- 54
2021-02-26 11:00:00 3.9 23 Sudeste 40 Sudeste 0 856.4 -- 66
2021-02-26 10:00:00 3.3 23 Sudeste 41 Sudeste 0 856 -- 77
2021-02-26 09:00:00 2.1 25 Este 41 Este 0 855.5 -- 79
2021-02-26 08:00:00 2.3 24 Sudeste 35 Este 0 855 -- 79
2021-02-26 07:00:00 2.4 22 Sudeste 36 Sudeste 0 855.1 -- 79
2021-02-26 06:00:00 2.8 20 Sudeste 35 Este 0 855.3 -- 78
2021-02-26 05:00:00 2.9 19 Sudeste 35 Sudeste 0 855.2 -- 77
2021-02-26 04:00:00 3.2 23 Sudeste 41 Sudeste 0 855.4 -- 67
2021-02-26 03:00:00 3.9 25 Sudeste 40 Sudeste 0 855.8 -- 64
2021-02-26 02:00:00 4.1 23 Sudeste 36 Sudeste 0 856.3 -- 62
2021-02-26 01:00:00 4.5 19 Sudeste 34 Este 0 856.8 -- 60
2021-02-26 00:00:00 4.6 20 Sudeste 34 Sudeste 0 856.7 -- 59
2021-02-25 23:00:00 4.7 18 Sudeste 30 Este 0 856.6 -- 58
2021-02-25 22:00:00 4.2 13 Sudeste 23 Este 0 856.4 -- 60
2021-02-25 21:00:00 3.3 13 Sudeste 19 Sudeste 0 856.3 -- 73
2021-02-25 20:00:00 3 13 Sudeste 19 Sudeste 0 856.1 -- 74
2021-02-25 19:00:00 3.5 13 Sudeste 20 Este 0 855.7 -- 73
2021-02-25 18:00:00 4.1 15 Sudeste 28 Sudeste 0 855.4 -- 69
2021-02-25 17:00:00 4.9 16 Sudeste 26 Sudeste 0 855.3 -- 61
2021-02-25 16:00:00 4.9 15 Este 26 Sudeste 0 855.2 -- 62
2021-02-25 15:00:00 4.6 14 Este 23 Sudeste 0 855.4 -- 78
2021-02-25 14:00:00 3.6 13 Este 24 Sudeste 0 855.6 -- 80
2021-02-25 13:00:00 2.5 12 Sudeste 26 Sudeste 0 855.9 -- 80
2021-02-25 12:00:00 1.6 18 Sudeste 30 Este 0 855.9 -- 80
2021-02-25 11:00:00 1.2 19 Sudeste 33 Sudeste 0 855.9 -- 80
2021-02-25 10:00:00 1 21 Este 39 Sudeste 0 855.5 -- 80
2021-02-25 09:00:00 1.1 25 Sudeste 42 Sudeste 0 855 -- 80
2021-02-25 08:00:00 1 22 Sudeste 37 Sudeste 0 854.2 -- 80
2021-02-25 07:00:00 1.2 26 Sudeste 38 Este 0 854.3 -- 80
2021-02-25 06:00:00 1.4 24 Sudeste 41 Este 0 854.2 -- 80
2021-02-25 05:00:00 1.6 22 Este 40 Este 0 854.1 -- 80
2021-02-25 04:00:00 2 22 Este 42 Sudeste 0 855 -- 80
2021-02-25 03:00:00 2.2 24 Este 50 Este 0 854.9 -- 80
2021-02-25 02:00:00 2.3 24 Este 39 Sudeste 0 855.4 -- 80
2021-02-25 01:00:00 2.8 23 Este 41 Este 0 855.9 -- 80
2021-02-25 00:00:00 3.3 15 Este 32 Sudeste 0 856.6 -- 80
2021-02-24 23:00:00 3.5 17 Este 33 Este 0 856.7 -- 80
2021-02-24 22:00:00 3.6 16 Este 34 Este 0 856.5 -- 80
2021-02-24 21:00:00 3.8 19 Este 37 Sudeste 0 856.1 -- 80
2021-02-24 20:00:00 4 17 Sudeste 39 Este 0 856.3 -- 80
2021-02-24 19:00:00 4.4 21 Este 36 Este 0 856.3 -- 80
2021-02-24 18:00:00 4.4 19 Sudeste 40 Este 0 856.5 -- 80
2021-02-24 17:00:00 4.2 22 Sudeste 49 Sudeste 0 856.1 -- 80
2021-02-24 16:00:00 3.5 28 Sudeste 46 Este 0 856 -- 80
2021-02-24 15:00:00 2.6 25 Este 44 Este 0 857 -- 80
2021-02-24 14:00:00 2.2 25 Este 49 Este 0 857.7 -- 80
2021-02-24 13:00:00 2 27 Sudeste 53 Sudeste 0 858.2 -- 80
2021-02-24 12:00:00 1.7 31 Este 53 Este 0 858.4 -- 80
2021-02-24 11:00:00 1.2 26 Este 42 Sudeste 0 858.8 -- 80
2021-02-24 10:00:00 0.6 24 Este 40 Este 0 859.2 -- 80
2021-02-24 09:00:00 0.3 26 Este 44 Sudeste 0 859 -- 80
2021-02-24 08:00:00 0.4 29 Sudeste 46 Este 0 858.5 -- 80
2021-02-24 07:00:00 0.3 30 Este 46 Este 0 858.2 -0.5 80
2021-02-24 06:00:00 0.4 31 Este 58 Sudeste 0 858.4 -0.4 80
2021-02-24 05:00:00 0.7 32 Este 52 Sudeste 0 858.1 -- 80
2021-02-24 04:00:00 0.8 30 Sudeste 49 Sudeste 0 858.7 -- 80
2021-02-24 03:00:00 0.8 30 Este 48 Este 0 858.8 -- 80
2021-02-24 02:00:00 0.9 29 Este 48 Sudeste 0 859.1 -0.9 80
2021-02-24 01:00:00 1.1 27 Este 41 Este 0 859.4 -- 80
2021-02-24 00:00:00 1.3 24 Este 38 Este 0 859.7 -- 79
2021-02-23 23:00:00 1.1 21 Este 34 Este 0 860 -- 79
2021-02-23 22:00:00 1.4 19 Este 34 Este 0 859.9 -- 76
2021-02-23 21:00:00 2 19 Sudeste 35 Sudeste 0 859.7 1.1 73
2021-02-23 20:00:00 1.9 23 Este 41 Sudeste 0 859.3 -- 71
2021-02-23 19:00:00 2.1 23 Sudeste 44 Este 0 858.9 -- 67
2021-02-23 18:00:00 3.3 24 Sudeste 40 Sudeste 0 858.6 -- 63
2021-02-23 17:00:00 3 22 Este 40 Este 0 858.5 -- 60
2021-02-23 16:00:00 3.2 21 Este 40 Este 0 858.5 -- 59
2021-02-23 15:00:00 3.2 22 Sudeste 40 Sudeste 0 858.4 -- 78
2021-02-23 14:00:00 1.9 22 Este 41 Sudeste 0 858.8 -- 80
2021-02-23 13:00:00 1 22 Este 39 Sudeste 0 858.9 -- 80
2021-02-23 12:00:00 0 21 Este 35 Este 0 858.7 -- 80
2021-02-23 11:00:00 0 19 Sudeste 32 Sudeste 0 858.6 -- 80
2021-02-23 10:00:00 -0.3 17 Este 29 Este 0 857.9 -- 80
2021-02-23 09:00:00 -0.6 15 Este 23 Este 0 857.1 -- 80
2021-02-23 08:00:00 -1.1 17 Sudeste 25 Este 0 856.2 -- 80
2021-02-23 07:00:00 -0.9 15 Sudeste 22 Sudeste 0 855.8 -- 80
2021-02-23 06:00:00 -0.6 12 Sudeste 18 Sudeste 0 855.4 -- 80
2021-02-23 05:00:00 -1.1 10 Sudeste 16 Este 0 855.1 -- 80
2021-02-23 04:00:00 -0.8 11 Sudeste 17 Este 0 854.6 -- 80
2021-02-23 03:00:00 -0.8 5 Sudeste 12 Sudeste 0 854.7 -- 80
2021-02-23 02:00:00 -0.7 2 Sur 8 Sudoeste 0 854.2 -- 80
2021-02-23 01:00:00 -0.5 5 Sur 12 Sur 0 853.9 -- 80
2021-02-23 00:00:00 -0.4 7 Sudeste 13 Sudeste 0 853.3 -- 80
2021-02-22 23:00:00 -0.4 3 Sur 11 Este 0 852.9 -- 80
2021-02-22 22:00:00 -0.5 7 Sudeste 9 Sudeste 0 852.2 -- 80
2021-02-22 21:00:00 -0.4 6 Oeste 18 Oeste 0 851.5 -- 80
2021-02-22 20:00:00 -0.4 13 Oeste 26 Oeste 0 851.1 -- 80
2021-02-22 19:00:00 -0.2 18 Noroeste 27 Noroeste 0 850.3 -- 80
2021-02-22 18:00:00 -0.1 20 Noroeste 30 Noroeste 0 849.4 -- 80
2021-02-22 17:00:00 -0.3 21 Noroeste 29 Oeste 0 848.8 -- 80
2021-02-22 16:00:00 -0.4 13 Noroeste 22 Oeste 0 848.1 -- 80
2021-02-22 15:00:00 -0.5 6 Noroeste 22 Oeste 0 847.4 -- 80
2021-02-22 14:00:00 -1.2 16 Oeste 26 Noroeste 0 847 -- 80
2021-02-22 13:00:00 -1.5 18 Noroeste 30 Oeste 0.6 846.7 -- 80
2021-02-22 12:00:00 -2.3 21 Noroeste 36 Noroeste 0 846.3 -- 79
2021-02-22 11:00:00 -2.3 23 Noroeste 45 Noroeste 0 845.3 -- 79
2021-02-22 10:00:00 -2.6 34 Noroeste 48 Oeste 0.1 843.9 -- 79
2021-02-22 09:00:00 -2.3 32 Noroeste 51 Oeste 0 842.5 -- 79
2021-02-22 08:00:00 -2.3 35 Noroeste 58 Noroeste 0 841.4 -- 80
2021-02-22 07:00:00 -2 39 Noroeste 57 Noroeste 0.1 840.4 1.6 80
2021-02-22 06:00:00 -2 41 Noroeste 60 Oeste 0.1 839.4 -- 80
2021-02-22 05:00:00 -1.7 45 Noroeste 61 Oeste 0.2 838.6 -- 80
2021-02-22 04:00:00 -1.9 41 Noroeste 59 Oeste 0.1 838.8 -- 80
2021-02-22 03:00:00 -1.9 42 Noroeste 64 Noroeste 0.1 838.5 -- 80
2021-02-22 02:00:00 -2 44 Noroeste 64 Noroeste 0.1 838.1 -- 80
2021-02-22 01:00:00 -2.2 44 Noroeste 65 Oeste 0.1 837.8 -- 80
2021-02-22 00:00:00 -1.9 46 Noroeste 63 Noroeste 0.2 837.4 -- 80
2021-02-21 23:00:00 -1.7 38 Noroeste 53 Noroeste 0.2 837.4 -- 80
2021-02-21 22:00:00 -1.7 32 Noroeste 45 Noroeste 0.6 837.5 1.3 80
2021-02-21 21:00:00 -1.5 28 Noroeste 36 Noroeste 1.1 837.2 -- 80
2021-02-21 20:00:00 -1.2 27 Noroeste 39 Noroeste 3.3 836.8 -- 81
2021-02-21 19:00:00 1.6 6 Sur 29 Este 5.4 836.2 -- 81
2021-02-21 18:00:00 2.8 10 Este 38 Este 1.4 835.6 -- 81
2021-02-21 17:00:00 2.6 18 Este 37 Este 1.9 835.1 -- 81
2021-02-21 16:00:00 2.4 21 Este 40 Este 2.2 835.1 -- 81
2021-02-21 15:00:00 2.1 23 Sudeste 44 Sudeste 1.5 835.1 -- 81
2021-02-21 14:00:00 2.1 23 Sudeste 46 Sudeste 0.2 835.8 -- 81
2021-02-21 13:00:00 1.9 26 Este 41 Este 0 836 -- 81
2021-02-21 12:00:00 1.7 21 Este 36 Este 0 837 -- 81
2021-02-21 11:00:00 1.3 17 Este 30 Este 0 837.3 -- 81
2021-02-21 10:00:00 1 17 Este 30 Sudeste 0 837.6 -- 81
2021-02-21 09:00:00 0.9 16 Este 33 Este 0 837.5 -- 81
2021-02-21 08:00:00 1.1 20 Este 36 Este 0 837.2 -- 81
2021-02-21 07:00:00 1 23 Este 51 Sudeste 0 837.4 -- 81
2021-02-21 06:00:00 1.4 26 Este 49 Este 0 837.6 -- 80
2021-02-21 05:00:00 1.6 27 Este 45 Sudeste 0 837.1 -- 81
2021-02-21 04:00:00 1.9 23 Este 42 Sudeste 0 837.9 -- 81
2021-02-21 03:00:00 2.1 24 Este 46 Este 0 838.8 -- 81
2021-02-21 02:00:00 2 25 Este 41 Este 0 839.1 -- 67
2021-02-21 01:00:00 2.5 24 Este 66 Este 0 839.7 -- 56
2021-02-21 00:00:00 3.8 25 Sudeste 43 Este 0 839.9 -- 40
2021-02-20 23:00:00 3.1 21 Este 35 Sudeste 0 839.9 -- 39
2021-02-20 22:00:00 3.4 19 Este 32 Este 0 840.4 -- 39
2021-02-20 21:00:00 3.7 14 Este 31 Este 0 841.1 -- 36
2021-02-20 20:00:00 4.3 17 Este 33 Este 0 841.9 -- 40
2021-02-20 19:00:00 5.7 18 Este 41 Este 0 841.7 -- 36
2021-02-20 18:00:00 7.2 22 Sudeste 54 Sudeste 0 841.7 -- 31
2021-02-20 17:00:00 8.3 22 Sudeste 46 Sudeste 0 841.9 -- 31
2021-02-20 16:00:00 8.5 23 Sudeste 50 Sudeste 0 842.2 -- 31
2021-02-20 15:00:00 8.1 26 Este 48 Este 0 842.2 -- 35
2021-02-20 14:00:00 6.5 19 Este 59 Sudeste 0 843.5 -- 39
2021-02-20 13:00:00 8.2 25 Este 49 Este 0 843.8 -- 37
2021-02-20 12:00:00 6.2 23 Este 50 Este 0 845 -- 51
2021-02-20 11:00:00 2.5 21 Este 36 Este 0 844.6 -- 66
2021-02-20 10:00:00 1.5 18 Este 35 Sudeste 0 844.9 -- 69
2021-02-20 09:00:00 1 23 Este 37 Sudeste 0 844 0.1 67
2021-02-20 08:00:00 1.6 25 Este 40 Este 0 843.8 -- 64
2021-02-20 07:00:00 1.5 23 Sudeste 39 Este 0 843.6 -- 66
2021-02-20 06:00:00 2 23 Este 39 Sudeste 0 843.9 -- 62
2021-02-20 05:00:00 1.8 24 Este 41 Este 0 843.6 -- 61
2021-02-20 04:00:00 1.9 21 Este 34 Este 0 844.3 -1.3 65
2021-02-20 03:00:00 2.4 21 Este 33 Este 0 845 -- 63
2021-02-20 02:00:00 2.6 18 Sudeste 33 Este 0 845.2 -- 61
2021-02-20 01:00:00 3.3 21 Este 32 Sudeste 0 845.6 -- 58
2021-02-20 00:00:00 4 18 Este 34 Este 0 846.2 -- 54
2021-02-19 23:00:00 3.7 15 Este 29 Este 0 846.4 -0.7 54
2021-02-19 22:00:00 4.2 14 Sudeste 32 Este 0 846.7 -- 51
2021-02-19 21:00:00 4.6 14 Este 27 Este 0 846.6 -- 49
2021-02-19 20:00:00 4.7 13 Este 23 Este 0 847.1 -- 46
2021-02-19 19:00:00 5.3 10 Este 23 Este 0 847 -- 44
2021-02-19 18:00:00 6.8 12 Este 27 Este 0 847.1 -- 37
2021-02-19 17:00:00 7.3 14 Este 34 Sudeste 0 847.4 -0.1 35
2021-02-19 16:00:00 8.1 17 Sudeste 39 Sudeste 0 847.1 -- 36
2021-02-19 15:00:00 8.6 19 Sudeste 46 Sudeste 0 847.3 -- 35
2021-02-19 14:00:00 8 21 Sudeste 42 Este 0 847.5 -- 43
2021-02-19 13:00:00 7.2 23 Este 40 Sudeste 0 848.1 -- 50
2021-02-19 12:00:00 6.3 22 Sudeste 36 Este 0 848.3 -- 53
2021-02-19 11:00:00 4.9 21 Este 34 Este 0 848.5 -- 57
2021-02-19 10:00:00 4.2 18 Sudeste 30 Sudeste 0 848.3 -- 64
2021-02-19 09:00:00 2.5 19 Sudeste 27 Sudeste 0 848.2 -- 74
2021-02-19 08:00:00 1.2 17 Sudeste 27 Sudeste 0 847.9 -- 74
2021-02-19 07:00:00 1.3 17 Sudeste 24 Este 0 847.8 -- 68
2021-02-19 06:00:00 1.6 10 Sudeste 17 Este 0 848 -- 61
2021-02-19 05:00:00 2 10 Sudeste 22 Este 0 848 -- 54
2021-02-19 04:00:00 2 7 Sudeste 19 Este 0 848 -- 54
2021-02-19 03:00:00 2.7 4 Este 14 Este 0 848.4 -- 50
2021-02-19 02:00:00 3.3 7 Este 18 Nordeste 0 848.8 -- 49
2021-02-19 01:00:00 2.6 3 Sur 24 Nordeste 0 848.8 -- 50
2021-02-19 00:00:00 3 9 Este 18 Nordeste 0 848.9 -- 47
2021-02-18 23:00:00 3 8 Este 15 Oeste 0 849.1 -- 45
2021-02-18 22:00:00 4 4 Sur 25 Oeste 0 849.1 -- 40
2021-02-18 21:00:00 4.3 14 Oeste 29 Oeste 0 849 -- 40
2021-02-18 20:00:00 4.9 20 Oeste 44 Oeste 0 848.6 -- 35
2021-02-18 19:00:00 5.6 25 Oeste 40 Sudoeste 0 847.8 -- 35
2021-02-18 18:00:00 6.9 21 Sudoeste 41 Oeste 0 847.5 -- 34
2021-02-18 17:00:00 8.6 18 Oeste 35 Oeste 0 847.4 -- 33
2021-02-18 16:00:00 9.6 14 Oeste 42 Oeste 0 847.4 -- 32
2021-02-18 15:00:00 8.9 14 Sudoeste 31 Oeste 0 847.7 -- 34
2021-02-18 14:00:00 8.8 4 Sudoeste 36 Sudoeste 0 848 -- 41
2021-02-18 13:00:00 7.6 10 Sudoeste 30 Sudoeste 0 848.4 -- 42
2021-02-18 12:00:00 6.9 9 Sur 35 Sur 0 848.3 -- 39
2021-02-18 11:00:00 6.4 17 Sudoeste 39 Sudoeste 0 848.5 -- 32
2021-02-18 10:00:00 5.8 13 Sudoeste 28 Sudoeste 0 848.3 -- 33
2021-02-18 09:00:00 5.6 16 Sudoeste 30 Sudoeste 0 847.5 -- 33
2021-02-18 08:00:00 5.2 14 Sudoeste 27 Sudoeste 0 847 -- 34
2021-02-18 07:00:00 5.8 14 Sudoeste 43 Sudoeste 0 846.9 -- 30
2021-02-18 06:00:00 6.2 19 Sudoeste 37 Sudoeste 0 847.4 -- 29
2021-02-18 05:00:00 6.6 12 Sudoeste 37 Sudoeste 0 847.5 -- 27
2021-02-18 04:00:00 6 13 Sudoeste 39 Sudoeste 0 847.7 -- 35
2021-02-18 03:00:00 6.3 14 Sudoeste 36 Sudoeste 0 848.2 -- 36
2021-02-18 02:00:00 5.1 11 Sur 26 Sur 0 848.5 -- 50
2021-02-18 01:00:00 4.7 6 Este 17 Este 0 849.1 -- 59
2021-02-18 00:00:00 5.4 9 Sudeste 15 Sudeste 0 849.2 -- 52
2021-02-17 23:00:00 6 7 Sudeste 14 Sudoeste 0 849.6 -- 48
2021-02-17 22:00:00 6.9 8 Sudoeste 30 Sudoeste 0 849.9 -- 40
2021-02-17 21:00:00 7.2 12 Sudoeste 34 Sudoeste 0 849.9 -- 29
2021-02-17 20:00:00 7.4 14 Sudoeste 28 Sudoeste 0 849.6 -- 34
2021-02-17 19:00:00 6.2 9 Sur 18 Sur 0 849.8 -- 60
2021-02-17 18:00:00 6.7 10 Sudeste 24 Sudeste 0 850 -- 68
2021-02-17 17:00:00 7.9 8 Este 21 Este 0 850.2 -- 61
2021-02-17 16:00:00 8 13 Sudeste 23 Sudeste 0 850.5 -- 61
2021-02-17 15:00:00 8 13 Este 28 Este 0 850.9 -- 64
2021-02-17 14:00:00 7.5 9 Sudeste 28 Sudeste 0 851.5 -- 60
2021-02-17 13:00:00 7 9 Este 20 Este 0 852.1 -- 59
2021-02-17 12:00:00 6.8 12 Este 21 Este 0 852.5 -- 60
2021-02-17 11:00:00 5.5 10 Este 24 Sudoeste 0 852.6 -- 63
2021-02-17 10:00:00 6.7 10 Sur 25 Sudoeste 0 852.5 -- 51
2021-02-17 09:00:00 4.6 8 Este 14 Este 0 852.1 -- 66
2021-02-17 08:00:00 4.6 3 Sur 13 Sudoeste 0 852 -- 64
2021-02-17 07:00:00 4.1 8 Sudeste 11 Este 0 852.2 -- 67
2021-02-17 06:00:00 5.3 3 Sudoeste 9 Sudoeste 0 852.4 -- 58
2021-02-17 05:00:00 4.3 0 Calma 7 Oeste 0 852.5 -- 70
2021-02-17 04:00:00 4.3 5 Oeste 15 Noroeste 0 853.1 -- 70
2021-02-17 03:00:00 3.9 13 Noroeste 18 Noroeste 0 853.3 -- 72
2021-02-17 02:00:00 4.1 10 Oeste 17 Noroeste 0 853.5 -- 72
2021-02-17 01:00:00 3.7 12 Oeste 22 Oeste 0 853.6 -- 72
2021-02-17 00:00:00 4 15 Oeste 22 Noroeste 0 853.8 -- 72
2021-02-16 23:00:00 3.8 13 Oeste 18 Oeste 0 854.2 -- 71
2021-02-16 22:00:00 4.2 14 Oeste 23 Oeste 0 854.3 -- 64
2021-02-16 21:00:00 4.9 16 Noroeste 23 Noroeste 0 854.1 -- 57
2021-02-16 20:00:00 6.4 7 Oeste 18 Noroeste 0 854 -- 53
2021-02-16 19:00:00 6.4 7 Oeste 24 Noroeste 0 853.8 -- 53
2021-02-16 18:00:00 7.9 8 Oeste 18 Este 0 853.8 -- 53
2021-02-16 17:00:00 7.5 8 Sudeste 15 Este 0 853.9 -- 63
2021-02-16 16:00:00 8.1 8 Este 22 Sudoeste 0 854.3 -- 56
2021-02-16 15:00:00 9.8 6 Sur 24 Oeste 0 854.6 -- 43
2021-02-16 14:00:00 11.8 12 Oeste 39 Oeste 0 854.9 -- 22
2021-02-16 13:00:00 9.8 23 Oeste 46 Oeste 0 855.4 -- 24
2021-02-16 12:00:00 8.7 12 Sudoeste 30 Sudoeste 0 855.7 -- 26
2021-02-16 11:00:00 8.5 14 Sudoeste 32 Sur 0 855.6 -- 26
2021-02-16 10:00:00 9.1 18 Sudoeste 34 Sudoeste 0 855.4 -- 19
2021-02-16 09:00:00 7.1 17 Sudoeste 30 Sudoeste 0 855.3 -- 28
2021-02-16 08:00:00 3 17 Sudeste 23 Sudeste 0 854.8 -- 75
2021-02-16 07:00:00 2 17 Sudeste 27 Sudeste 0 854.7 -- 79
2021-02-16 06:00:00 2.2 20 Sudeste 31 Este 0 854.8 -- 79
2021-02-16 05:00:00 2.2 21 Sudeste 30 Sudeste 0 855.1 -- 79
2021-02-16 04:00:00 2.3 19 Sudeste 30 Sudeste 0 855.7 -- 80
2021-02-16 03:00:00 2.3 21 Sudeste 28 Este 0 856 -- 80
2021-02-16 02:00:00 2.6 21 Sudeste 35 Este 0 856.5 -- 80
2021-02-16 01:00:00 2.9 24 Este 34 Sudeste 0 856.9 -- 80
2021-02-16 00:00:00 3.5 23 Este 33 Sudeste 0 857.4 -- 77
2021-02-15 23:00:00 3.8 23 Este 36 Este 0 857.6 -- 73
2021-02-15 22:00:00 3.9 22 Este 36 Este 0 857.6 -- 73
2021-02-15 21:00:00 3.9 24 Sudeste 37 Sudeste 0 857.5 -- 73
2021-02-15 20:00:00 3.9 25 Este 42 Este 0 857.3 -- 73
2021-02-15 19:00:00 3.7 26 Este 40 Este 0 857.1 -- 74
2021-02-15 18:00:00 4.9 24 Sudeste 42 Este 0 857 -- 67
2021-02-15 17:00:00 5.7 26 Sudeste 40 Este 0 857.3 -- 64
2021-02-15 16:00:00 5.1 26 Sudeste 42 Sudeste 0 857.2 -- 61
2021-02-15 15:00:00 4 27 Sudeste 40 Este 0 857.5 -- 79
2021-02-15 14:00:00 3.3 26 Este 38 Este 0 858.1 -- 80
2021-02-15 13:00:00 2.2 26 Sudeste 39 Sudeste 0 858.9 -- 80
2021-02-15 12:00:00 1.8 24 Este 36 Este 0 859.4 -- 80
2021-02-15 11:00:00 1.6 23 Sudeste 37 Este 0 859.1 -- 80
2021-02-15 10:00:00 1.3 26 Sudeste 37 Este 0 858.9 -- 80
2021-02-15 09:00:00 1.4 23 Este 33 Sudeste 0 858.6 -- 80
2021-02-15 08:00:00 1.6 21 Sudeste 32 Sudeste 0 858.1 -- 80
2021-02-15 07:00:00 1.7 20 Sudeste 33 Sudeste 0 858 -- 80
2021-02-15 06:00:00 1.4 21 Este 30 Sudeste 0 858.1 -- 80
2021-02-15 05:00:00 2 19 Sudeste 28 Sudeste 0 858.1 -- 80
2021-02-15 04:00:00 2.2 20 Sudeste 28 Este 0 858.2 -- 80
2021-02-15 03:00:00 2.1 19 Sudeste 28 Sudeste 0 858.5 -- 79
2021-02-15 02:00:00 2 21 Este 29 Este 0 858.6 -- 78
2021-02-15 01:00:00 2.3 19 Este 31 Este 0 858.6 -- 71
2021-02-15 00:00:00 3.6 18 Este 32 Sudeste 0 858.7 -- 65
2021-02-14 23:00:00 3.7 19 Sudeste 31 Este 0 858.7 -- 65
2021-02-14 22:00:00 3.9 19 Sudeste 28 Este 0 858.4 -- 67
2021-02-14 21:00:00 3.8 19 Sudeste 27 Este 0 858.2 -- 69
2021-02-14 20:00:00 3.9 18 Sudeste 26 Sudeste 0 858 -- 67
2021-02-14 19:00:00 4.2 15 Sudeste 25 Sudeste 0 857.5 0.4 65
2021-02-14 18:00:00 5.5 14 Sudeste 27 Sudeste 0 857.4 0.3 56
2021-02-14 17:00:00 6.6 19 Sudeste 30 Este 0 857.1 -- 50
2021-02-14 16:00:00 7.3 16 Este 27 Este 0 857.1 -- 48
2021-02-14 15:00:00 6.9 17 Este 29 Este 0 857.1 -- 49
2021-02-14 14:00:00 6.7 16 Este 28 Este 0 857.1 -- 53
2021-02-14 13:00:00 5.9 20 Sudeste 31 Este 0 857.3 -- 62
2021-02-14 12:00:00 5.7 20 Este 30 Sudeste 0 857.4 -- 58
2021-02-14 11:00:00 5.6 18 Este 29 Este 0 857 -- 60
2021-02-14 10:00:00 4.4 12 Este 21 Este 0 856.6 -- 65
2021-02-14 09:00:00 3.5 12 Este 16 Este 0 856.3 -- 69
2021-02-14 08:00:00 1.8 10 Este 13 Este 0 855.9 -- 73
2021-02-14 07:00:00 1.9 11 Este 15 Este 0 855.6 -- 71
2021-02-14 06:00:00 2.1 13 Este 19 Este 0 855.3 -- 67
2021-02-14 05:00:00 2.4 13 Sudeste 18 Sudeste 0 855.2 -- 67
2021-02-14 04:00:00 2.9 12 Sudeste 20 Sudeste 0 855.3 -- 66
2021-02-14 03:00:00 2.5 14 Este 24 Sudeste 0 855.7 -- 67
2021-02-14 02:00:00 2.7 18 Sudeste 25 Sudeste 0 855.6 -- 70
2021-02-14 01:00:00 2.5 14 Este 19 Sudeste 0 855.5 -- 75
2021-02-14 00:00:00 4 13 Oeste 39 Noroeste 0 856 -- 80
2021-02-13 23:00:00 4.1 27 Noroeste 39 Oeste 0 855.6 -- 80
2021-02-13 22:00:00 4.1 17 Noroeste 35 Noroeste 0 855.7 -- 79
2021-02-13 21:00:00 4.4 22 Noroeste 38 Noroeste 0 855.5 -- 77
2021-02-13 20:00:00 4.5 23 Noroeste 42 Oeste 0 855.2 -- 76
2021-02-13 19:00:00 4.8 28 Noroeste 42 Oeste 0 854.4 -- 72
2021-02-13 18:00:00 5.4 24 Noroeste 44 Noroeste 0 854 -- 64
2021-02-13 17:00:00 6.1 27 Noroeste 45 Noroeste 0 853.8 -- 58
2021-02-13 16:00:00 6.8 31 Noroeste 47 Noroeste 0 853.5 -- 49
2021-02-13 15:00:00 5 33 Noroeste 50 Norte 0 853.5 -- 43
2021-02-13 14:00:00 4.9 32 Noroeste 48 Noroeste 0 853.7 -- 35
2021-02-13 13:00:00 4.6 32 Noroeste 83 Noroeste 0 854.3 -- 35
2021-02-13 08:00:00 0 22 Noroeste 33 Oeste 0 852.7 0.1 79
2021-02-13 07:00:00 0.2 24 Noroeste 34 Oeste 0 852.8 0.3 79
2021-02-13 06:00:00 0.2 23 Noroeste 32 Noroeste 0 852.6 0 78
2021-02-13 05:00:00 0.5 21 Noroeste 35 Noroeste 0 852.6 -0.1 78
2021-02-13 04:00:00 0.4 22 Noroeste 37 Noroeste 0 852.5 0.1 79
2021-02-13 03:00:00 0.8 22 Noroeste 37 Noroeste 0 852.6 0.4 79
2021-02-13 02:00:00 1.5 28 Noroeste 41 Oeste 0 852.7 0.5 79
2021-02-13 01:00:00 1.5 29 Noroeste 46 Noroeste 0 852.4 0.1 79
2021-02-13 00:00:00 1.7 32 Noroeste 50 Noroeste 0 852.2 0.3 78
2021-02-12 23:00:00 2.2 32 Noroeste 45 Noroeste 0 852.2 1 77
2021-02-12 22:00:00 2.2 30 Noroeste 44 Oeste 0 852.3 1.7 77
2021-02-12 21:00:00 2.3 27 Noroeste 46 Noroeste 0 851.9 1.6 77
2021-02-12 20:00:00 3 36 Noroeste 61 Noroeste 0 851.2 1.6 77
2021-02-12 19:00:00 3 30 Noroeste 57 Noroeste 0 850.6 1.7 78
2021-02-12 18:00:00 3.1 33 Noroeste 56 Oeste 0 850.3 1.6 79
2021-02-12 17:00:00 3.1 37 Noroeste 59 Oeste 0 849.6 1.2 79
2021-02-12 16:00:00 2.9 42 Noroeste 74 Noroeste 0 848.9 0.4 79
2021-02-12 15:00:00 2.7 44 Noroeste 68 Noroeste 0 848.7 0.6 79
2021-02-12 14:00:00 2.7 43 Noroeste 76 Noroeste 0 848.4 0.7 79
2021-02-12 13:00:00 2.2 48 Noroeste 78 Noroeste 0 848.5 1 79
2021-02-12 12:00:00 1.9 47 Noroeste 75 Noroeste 0 848.1 1.4 79
2021-02-12 11:00:00 1.8 43 Noroeste 76 Oeste 0 847.7 2.1 79
2021-02-12 10:00:00 1.9 35 Noroeste 64 Noroeste 0.5 847.5 1.6 79
2021-02-12 09:00:00 1.8 44 Noroeste 75 Noroeste 0 846.7 -- 79
2021-02-12 08:00:00 2.4 48 Noroeste 82 Noroeste 0 845.6 -- 79
2021-02-12 07:00:00 2.6 47 Noroeste 68 Noroeste 1.7 845.9 -- 79
2021-02-12 06:00:00 3.9 25 Noroeste 50 Oeste 0.8 846.3 -- 79
2021-02-12 05:00:00 4.2 20 Oeste 47 Oeste 1.1 846.3 -- 79
2021-02-12 04:00:00 5 4 Sur 18 Este 0.1 847.2 -- 79
2021-02-12 03:00:00 4.8 6 Sudeste 22 Este 0 847.7 -- 79
2021-02-12 02:00:00 4.6 2 Nordeste 15 Este 0 848.1 -- 79
2021-02-12 01:00:00 5.2 7 Sudeste 17 Sudeste 0 848 -- 79
2021-02-12 00:00:00 5.5 6 Este 27 Este 0 848.2 -- 79
2021-02-11 23:00:00 5.6 10 Este 22 Sudeste 0 848.4 -- 79
2021-02-11 22:00:00 5.6 5 Este 19 Nordeste 0 848.7 -- 79
2021-02-11 21:00:00 5.6 2 Sudoeste 26 Sudoeste 0 848.8 -- 79
2021-02-11 20:00:00 5.6 6 Sudeste 21 Este 0 848.9 -- 79
2021-02-11 19:00:00 5.8 8 Sudeste 14 Este 0 848.7 -- 79
2021-02-11 18:00:00 5.9 8 Sudeste 18 Este 0 848.8 -- 79
2021-02-11 17:00:00 5.9 10 Este 20 Este 0 848.7 -- 79
2021-02-11 16:00:00 5.9 9 Sudeste 17 Sudeste 0 848.9 -- 79
2021-02-11 15:00:00 6.1 11 Este 18 Sudeste 0 848.8 -- 77
2021-02-11 14:00:00 6.2 10 Sudeste 19 Este 0 849.3 -- 74
2021-02-11 13:00:00 6.9 7 Sudeste 15 Este 0.6 849.6 -- 70
2021-02-11 12:00:00 7.6 4 Oeste 23 Noroeste 0 849.7 -- 65
2021-02-11 11:00:00 6.7 15 Noroeste 34 Noroeste 0 849.5 -- 70
2021-02-11 10:00:00 6 24 Noroeste 39 Noroeste 0 849 -- 74
2021-02-11 09:00:00 5.2 24 Noroeste 45 Oeste 0 848.5 -- 77
2021-02-11 08:00:00 4.8 31 Noroeste 47 Noroeste 0 847.6 -- 77
2021-02-11 07:00:00 4.6 25 Noroeste 39 Noroeste 0 847.6 -- 79
2021-02-11 06:00:00 4.3 24 Noroeste 37 Noroeste 0 847.6 -- 79
2021-02-11 05:00:00 3.7 19 Noroeste 28 Oeste 0 847.6 -- 79
2021-02-11 04:00:00 2.7 19 Oeste 29 Oeste 0 847.4 -- 75
2021-02-11 03:00:00 2.2 18 Noroeste 27 Oeste 0 847.7 -- 63
2021-02-11 02:00:00 2.3 17 Noroeste 36 Noroeste 0 847.3 -- 53
2021-02-11 01:00:00 2.3 26 Noroeste 55 Noroeste 0 847 -- 52
2021-02-11 00:00:00 1.9 23 Noroeste 30 Noroeste 0 846.7 -- 49
2021-02-10 23:00:00 1.5 20 Noroeste 31 Oeste 0 846.4 -- 51
2021-02-10 22:00:00 0.4 22 Noroeste 33 Oeste 0 845.7 -- 56
2021-02-10 21:00:00 0.7 22 Noroeste 37 Oeste 0 845.3 -- 53
2021-02-10 20:00:00 0.5 26 Noroeste 41 Noroeste 0 845 -- 54
2021-02-10 19:00:00 1.4 30 Noroeste 46 Noroeste 0 844.2 -- 46
2021-02-10 18:00:00 3.6 28 Noroeste 53 Noroeste 0 843.8 -- 40
2021-02-10 17:00:00 4.6 27 Noroeste 55 Noroeste 0 843.4 -- 39
2021-02-10 16:00:00 4.6 29 Noroeste 55 Noroeste 0 842.8 -- 41
2021-02-10 15:00:00 3.7 37 Noroeste 67 Noroeste 0 841.9 -- 46
2021-02-10 14:00:00 2.1 49 Noroeste 71 Noroeste 0 841 -- 51
2021-02-10 13:00:00 1.6 46 Noroeste 73 Noroeste 0 840.4 -- 70
2021-02-10 12:00:00 0.5 44 Noroeste 72 Oeste 0 839.8 -- 80
2021-02-10 11:00:00 -0.2 40 Noroeste 78 Noroeste 0 839.4 -- 80
2021-02-10 10:00:00 -0.5 50 Noroeste 93 Oeste 0 837.6 -- 80
2021-02-10 09:00:00 -0.3 51 Noroeste 85 Oeste 0.1 836.5 -- 80
2021-02-10 08:00:00 -0.2 53 Noroeste 93 Noroeste 0 835.3 -- 80
2021-02-10 07:00:00 -0.3 48 Noroeste 92 Noroeste 0.1 834.1 -- 80
2021-02-10 06:00:00 -0.4 57 Noroeste 90 Noroeste 0.6 833.2 -- 80
2021-02-10 05:00:00 -0.5 41 Noroeste 76 Oeste 0.7 832.8 -- 79
2021-02-10 04:00:00 0.7 45 Oeste 89 Oeste 0.5 831.9 -- 76
2021-02-10 03:00:00 0.9 16 Oeste 42 Oeste 0 833 -- 71
2021-02-10 02:00:00 0.7 20 Oeste 49 Sudoeste 0 833.7 -- 71
2021-02-10 01:00:00 0.3 25 Noroeste 54 Noroeste 0 833.7 -- 75
2021-02-10 00:00:00 0.3 27 Oeste 55 Sudoeste 0 833.8 -- 80
2021-02-09 23:00:00 0.2 24 Oeste 54 Oeste 0 833.5 -- 80
2021-02-09 22:00:00 0.1 30 Oeste 63 Oeste 0 833.6 -- 80
2021-02-09 21:00:00 -0.6 21 Noroeste 53 Noroeste 0.2 833.5 -- 80
2021-02-09 20:00:00 -0.2 35 Noroeste 57 Oeste 0.3 832.8 -- 80
2021-02-09 19:00:00 -0.5 16 Oeste 43 Noroeste 0 832.9 -- 80
2021-02-09 18:00:00 -0.6 19 Noroeste 35 Noroeste 0 832.4 -- 80
2021-02-09 17:00:00 -0.5 21 Noroeste 57 Noroeste 0 832.8 -- 80
2021-02-09 16:00:00 -0.9 28 Noroeste 62 Noroeste 0.2 832.2 -- 79
2021-02-09 15:00:00 -1.6 50 Noroeste 75 Oeste 0.6 831.8 -- 79
2021-02-09 14:00:00 -0.6 35 Oeste 86 Noroeste 1.9 832.5 -- 80
2021-02-09 13:00:00 1.8 22 Sudoeste 61 Oeste 1.2 832.6 -- 80
2021-02-09 12:00:00 1.8 23 Sudoeste 55 Sudoeste 0.4 833.2 -- 80
2021-02-09 11:00:00 1.3 10 Sur 45 Sudoeste 0.5 833.9 -- 80
2021-02-09 10:00:00 0 15 Sudeste 33 Sur 1.4 834.4 -- 80
2021-02-09 09:00:00 0 0 Calma -- -- 1.2 835.4 -- 80
2021-02-09 08:00:00 -0.5 0 Calma -- -- 0.9 835.7 -- 80
2021-02-09 07:00:00 -0.7 0 Calma -- -- 0.5 836 -- 80
2021-02-09 06:00:00 -0.8 0 Calma -- -- 0.2 836.5 -- 80
2021-02-09 05:00:00 -0.7 0 Calma -- -- 0 836.9 -- 80
2021-02-09 04:00:00 -0.5 6 Oeste 38 Noroeste 0.2 837.2 -- 80
2021-02-09 03:00:00 -1 22 Noroeste 45 Noroeste 0.2 837.5 -- 80
2021-02-09 02:00:00 -0.8 26 Noroeste 42 Oeste 0 837.6 -- 80
2021-02-09 01:00:00 0.1 18 Noroeste 57 Oeste 0 837.8 -- 80
2021-02-09 00:00:00 0.2 37 Noroeste 64 Noroeste 0 836.7 -- 80
2021-02-08 23:00:00 0.2 41 Noroeste 70 Noroeste 0 835.9 -- 80
2021-02-08 22:00:00 0.4 47 Noroeste 69 Oeste 0 835.7 -- 80
2021-02-08 21:00:00 0.7 44 Noroeste 76 Noroeste 0 835.7 -- 80
2021-02-08 20:00:00 0.8 49 Noroeste 86 Oeste 0.1 834.4 -- 80
2021-02-08 19:00:00 0.7 43 Noroeste 70 Noroeste 0.4 833.9 -- 80
2021-02-08 18:00:00 0.7 37 Noroeste 63 Oeste 0.4 833.6 -- 79
2021-02-08 17:00:00 0.1 33 Noroeste 60 Oeste 0.4 833.2 -- 78
2021-02-08 16:00:00 0.7 32 Noroeste 54 Noroeste 0.1 833.1 -- 73
2021-02-08 15:00:00 1.3 34 Noroeste 62 Noroeste 0 833.1 -- 68
2021-02-08 14:00:00 0.7 43 Noroeste 72 Noroeste 0 833 -- 80
2021-02-08 13:00:00 0.3 44 Noroeste 69 Oeste 0 832.9 -- 80
2021-02-08 12:00:00 0.4 38 Noroeste 75 Oeste 0 833.1 -- 80
2021-02-08 11:00:00 0.3 36 Oeste 60 Oeste 0 833.1 -- 80
2021-02-08 10:00:00 -0.3 35 Noroeste 61 Noroeste 0 832.7 -- 80
2021-02-08 09:00:00 -0.7 39 Noroeste 65 Oeste 0.1 831.9 -- 80
2021-02-08 08:00:00 -0.4 36 Noroeste 64 Oeste 0.1 831.3 -- 80
2021-02-08 07:00:00 0 28 Noroeste 46 Noroeste 0.2 831.4 -- 80
2021-02-08 06:00:00 0 15 Noroeste 29 Oeste 0.9 832.5 -- 80
2021-02-08 05:00:00 -0.5 5 Este 31 Sudoeste 2 832.7 -- 80
2021-02-08 04:00:00 -0.2 9 Sudeste 37 Sudoeste 2 833.2 -- 80
2021-02-08 03:00:00 -0.2 15 Este 31 Sudoeste 0.2 834 -- 80
2021-02-08 02:00:00 0.4 14 Sur 42 Sudoeste 0.1 834.8 -- 80
2021-02-08 01:00:00 -0.2 14 Este 23 Nordeste 0 835 -- 80
2021-02-08 00:00:00 0.5 6 Sudeste 12 Noroeste 0 836.1 -- 80
2021-02-07 23:00:00 0.7 8 Noroeste 22 Noroeste 0.1 836.5 -- 80
2021-02-07 22:00:00 -0.3 17 Noroeste 33 Noroeste 0.2 836.6 -- 80
2021-02-07 21:00:00 -0.6 21 Oeste 40 Noroeste 0.4 836.9 -- 79
2021-02-07 20:00:00 -1.1 23 Noroeste 41 Oeste 0.3 837.1 -- 79
2021-02-07 19:00:00 -1.4 28 Noroeste 41 Oeste 0.1 836.6 -- 79
2021-02-07 18:00:00 -1.6 28 Noroeste 49 Noroeste 0.1 836.4 -- 77
2021-02-07 17:00:00 0.4 32 Noroeste 50 Noroeste 0 836.4 -- 55
2021-02-07 16:00:00 1.5 30 Noroeste 49 Noroeste 0 836.4 -- 68
2021-02-07 15:00:00 0.9 28 Noroeste 48 Oeste 0 836.5 -- 80
2021-02-07 14:00:00 -0.1 0 Calma -- -- 0 836.8 -- 79
2021-02-07 13:00:00 -1.1 0 Calma -- -- 0 837.4 -- 79
2021-02-07 12:00:00 -1 0 Calma -- -- 0 837.4 -- 79
2021-02-07 11:00:00 -1.6 0 Calma -- -- 0 837.1 -- 79
2021-02-07 10:00:00 -1.9 0 Calma -- -- 0 836.9 -- 79
2021-02-07 09:00:00 -2.3 0 Calma -- -- 0 836.6 -- 79
2021-02-07 08:00:00 -2.2 0 Calma -- -- 0 836.3 -- 79
2021-02-07 07:00:00 -2.3 0 Calma -- -- 0 836.4 -- 79
2021-02-07 06:00:00 -2.2 0 Calma -- -- 0 836.1 -- 79
2021-02-07 05:00:00 -2 0 Calma -- -- 0 836 -- 79
2021-02-07 04:00:00 -1.9 0 Calma -- -- 0 836.4 -- 79
2021-02-07 03:00:00 -1.2 0 Calma -- -- 0 836.4 -- 79
2021-02-07 02:00:00 -0.8 0 Calma 42 Oeste 0 836.1 -- 79
2021-02-07 01:00:00 -0.6 28 Noroeste 40 Oeste 0 836.3 -- 80
2021-02-07 00:00:00 -0.5 28 Noroeste 41 Noroeste 0 836.3 -- 80
2021-02-06 23:00:00 -0.1 22 Oeste 38 Oeste 0 836.2 -- 80
2021-02-06 22:00:00 0 20 Noroeste 31 Oeste 0 835.7 -- 80
2021-02-06 21:00:00 0.1 22 Noroeste 32 Noroeste 0 835.1 -- 80
2021-02-06 20:00:00 0.4 18 Noroeste 31 Noroeste 0 835 -- 80
2021-02-06 19:00:00 0.9 19 Noroeste 35 Noroeste 0 834.2 -- 80
2021-02-06 18:00:00 1.6 20 Noroeste 35 Oeste 0 833.8 -- 80
2021-02-06 17:00:00 1.5 23 Oeste 36 Oeste 0.2 833.4 -- 80
2021-02-06 16:00:00 1.7 18 Noroeste 31 Noroeste 2 833.2 -- 80
2021-02-06 15:00:00 2.2 10 Noroeste 20 Noroeste 0.7 833 -- 80
2021-02-06 14:00:00 3.1 6 Sudeste 12 Este 1.3 833.1 -- 80
2021-02-06 13:00:00 2.6 6 Sudeste 11 Sudeste 0.1 833.4 -- 80
2021-02-06 12:00:00 2.3 5 Sudeste 15 Sudeste 0.7 833.6 -- 80
2021-02-06 11:00:00 2.4 5 Sudeste 18 Sudeste 0.5 832.8 -- 80
2021-02-06 10:00:00 2.2 5 Sudeste 16 Sudoeste 0.1 833.1 -- 80
2021-02-06 09:00:00 1.8 2 Sudeste 23 Sudeste 0.4 832.8 -- 80
2021-02-06 08:00:00 1.8 11 Sudeste 26 Este 0.5 832.4 -- 80
2021-02-06 07:00:00 1.9 10 Sudeste 26 Este 0.9 832.2 -- 80
2021-02-06 06:00:00 1.6 10 Este 28 Este 3.1 832.2 -- 80
2021-02-06 05:00:00 1.4 15 Este 43 Este 2.3 832.1 -- 80
2021-02-06 04:00:00 2.4 23 Sudeste 39 Sudeste 0.3 831.7 -- 80
2021-02-06 03:00:00 2.2 13 Sudeste 37 Este 0 832.5 -- 80
2021-02-06 02:00:00 2.4 15 Sudeste 34 Sudeste 1.4 832.9 -- 80
2021-02-06 01:00:00 2.8 15 Este 30 Sudeste 0.1 833.4 -- 80
2021-02-06 00:00:00 2.7 11 Este 28 Sudeste 0.1 833.6 -- 80
2021-02-05 23:00:00 2.4 11 Este 52 Sudeste 4.9 834.3 -- 79
2021-02-05 22:00:00 3.7 15 Este 55 Sudeste 7.3 833.7 -- 79
2021-02-05 21:00:00 5.1 5 Sudeste 30 Este 0.4 833.8 -- 75
2021-02-05 20:00:00 5.8 18 Este 30 Este 0 833.8 -- 67
2021-02-05 19:00:00 5.8 19 Este 34 Este 0 833.6 -- 66
2021-02-05 18:00:00 6.3 17 Este 31 Sudeste 0 833.9 -- 60
2021-02-05 17:00:00 6.4 16 Este 28 Este 0 834.2 -- 54
2021-02-05 16:00:00 7.7 19 Sudeste 33 Sudeste 0 834.7 -- 49
2021-02-05 15:00:00 7.6 19 Sudeste 35 Sudeste 0 835.2 -- 53
2021-02-05 14:00:00 7.4 23 Sudeste 41 Este 0 835.6 -- 49
2021-02-05 13:00:00 8.1 17 Sudeste 30 Sudeste 0 836.5 -- 49
2021-02-05 12:00:00 7.5 12 Sudeste 23 Sudeste 0 837.5 -- 50
2021-02-05 11:00:00 6.3 11 Este 22 Este 0 837.7 -- 55
2021-02-05 10:00:00 5.9 4 Sudeste 17 Este 0 838.2 -- 58
2021-02-05 09:00:00 5.2 7 Sudeste 17 Este 0 838.1 -- 65
2021-02-05 08:00:00 4 8 Sudeste 15 Sudeste 0 838.2 -- 78
2021-02-05 07:00:00 3.6 5 Sur 13 Este 0 838.2 -- 80
2021-02-05 06:00:00 3.5 7 Sudeste 14 Este 0 838.3 -- 80
2021-02-05 05:00:00 3.5 11 Este 20 Sudeste 0.1 839.1 -- 80
2021-02-05 04:00:00 4 9 Sudeste 16 Este 0 839.6 -- 80
2021-02-05 03:00:00 3.9 8 Este 19 Este 0.1 839.8 -- 80
2021-02-05 02:00:00 4.2 4 Sudeste 39 Este 0.5 840 -- 80
2021-02-05 01:00:00 3.5 10 Este 29 Sudeste 0.1 840.7 -- 80
2021-02-05 00:00:00 3.7 18 Este 31 Este 0 840.6 -- 80
2021-02-04 23:00:00 3.8 16 Este 30 Este 0 840.6 -- 80
2021-02-04 22:00:00 3.9 18 Este 31 Sudeste 0 840.4 -- 80
2021-02-04 21:00:00 3.9 15 Este 23 Nordeste 0.1 840.2 -- 80
2021-02-04 20:00:00 4 11 Sudeste 30 Este 0 840.6 -- 80
2021-02-04 19:00:00 3.8 14 Sudeste 27 Sudeste 0 840.3 -- 80
2021-02-04 18:00:00 3.6 7 Sudeste 23 Sudeste 0 840.2 -- 80
2021-02-04 17:00:00 3.6 14 Sudeste 30 Sudeste 0 839.7 -- 80
2021-02-04 16:00:00 3.9 12 Sudeste 27 Este 0 839.3 -- 80
2021-02-04 15:00:00 3.8 15 Sudeste 35 Este 0 839.6 -- 80
2021-02-04 14:00:00 4 17 Este 44 Sudeste 0 839.6 -- 80
2021-02-04 13:00:00 4 25 Este 46 Este 0.3 840 -- 80
2021-02-04 12:00:00 4 24 Este 44 Sudeste 0.8 840.3 -- 80
2021-02-04 11:00:00 3.7 21 Este 35 Este 1.5 840.8 -- 80
2021-02-04 10:00:00 3.4 17 Sudeste 26 Sudeste 0.2 841.1 -- 80
2021-02-04 09:00:00 3.3 14 Sudeste 23 Sudeste 0.1 841.4 -- 80
2021-02-04 08:00:00 3.5 11 Sudeste 17 Sudeste 0.4 841.7 -- 80
2021-02-04 07:00:00 3.6 8 Sudeste 16 Este 0.1 841.9 -- 80
2021-02-04 06:00:00 3.7 11 Este 17 Este 0.5 841.8 -- 80
2021-02-04 05:00:00 4 5 Sudeste 15 Sudeste 0.1 842.1 -- 80
2021-02-04 04:00:00 4.2 5 Sudeste 14 Este 0 842.6 -- 80
2021-02-04 03:00:00 4.5 6 Sudeste 20 Sudeste 0.1 842.9 -- 80
2021-02-04 02:00:00 4.8 5 Sur 14 Este 0 843.2 -- 80
2021-02-04 01:00:00 5 5 Sudeste 15 Sudeste 0.4 843.3 -- 80
2021-02-04 00:00:00 4.8 4 Sudeste 16 Nordeste 0.2 843.5 -- 80
2021-02-03 23:00:00 4.8 8 Sudeste 18 Este 1.4 843.6 -- 80
2021-02-03 22:00:00 4.6 9 Este 18 Este 1.1 843.6 -- 80
2021-02-03 21:00:00 4.4 10 Este 21 Este 1.2 843.5 -- 80
2021-02-03 20:00:00 4.3 10 Este 21 Sudeste 0.8 843.6 -- 80
2021-02-03 19:00:00 4.2 14 Este 24 Sudeste 0.3 843.4 -- 80
2021-02-03 18:00:00 4.4 9 Sudeste 23 Sudeste 0 843.3 -- 80
2021-02-03 17:00:00 4.4 11 Sur 25 Sudoeste 0 843.6 -- 80
2021-02-03 16:00:00 4.4 12 Sudoeste 27 Sudoeste 0 844 -- 80
2021-02-03 15:00:00 3.7 12 Sudeste 23 Sudeste 0 843.9 -- 80
2021-02-03 14:00:00 3.6 14 Sudeste 26 Este 0.1 844.3 -- 80
2021-02-03 13:00:00 3.7 18 Este 27 Este 0.2 844.7 -- 80
2021-02-03 12:00:00 3.3 13 Sudeste 24 Este 0.2 845.5 -- 80
2021-02-03 11:00:00 3.1 11 Este 25 Este 0.5 845.4 -- 80
2021-02-03 10:00:00 2.7 15 Sudeste 26 Este 0.2 844.9 -- 80
2021-02-03 09:00:00 2.5 17 Sudeste 27 Este 0.1 844.3 -- 80
2021-02-03 08:00:00 2.5 11 Este 32 Este 0 844.1 -- 80
2021-02-03 07:00:00 2.3 20 Sudeste 32 Este 0 843.6 -- 80
2021-02-03 06:00:00 2.1 21 Sudeste 32 Este 0 843.7 -- 80
2021-02-03 05:00:00 2.3 17 Este 26 Sudeste 0 843.9 -- 80
2021-02-03 04:00:00 2.3 12 Este 24 Este 0 844.6 -- 80
2021-02-03 03:00:00 2.3 14 Sudeste 22 Este 0 844.8 -- 80
2021-02-03 02:00:00 2.4 15 Este 31 Este 0 845.1 -- 80
2021-02-03 01:00:00 2.3 18 Sudeste 27 Sudeste 0 845.1 -- 80
2021-02-03 00:00:00 2.4 17 Sudeste 27 Sudeste 0 845.1 -- 80
2021-02-02 23:00:00 2.9 19 Este 29 Este 0 845.3 -- 80
2021-02-02 22:00:00 3.4 16 Sudeste 25 Sudeste 0 845.5 -- 80
2021-02-02 21:00:00 3.5 14 Sudeste 31 Este 0 845.8 -- 80
2021-02-02 20:00:00 3.9 17 Sudeste 32 Sudeste 0 846.2 -- 80
2021-02-02 19:00:00 4.5 18 Sudeste 36 Este 0 846 -- 80
2021-02-02 18:00:00 4.5 18 Este 29 Sudeste 0 845.5 -- 79
2021-02-02 17:00:00 4.7 17 Este 26 Este 0 845.7 -- 77
2021-02-02 16:00:00 4.6 12 Este 26 Sudeste 0 846.2 -- 80
2021-02-02 15:00:00 4 16 Sudeste 25 Sudeste 0 846.5 -- 80
2021-02-02 14:00:00 4.1 17 Este 26 Este 0 847.2 -- 80
2021-02-02 13:00:00 3.8 17 Este 23 Este 0 847.5 -- 79
2021-02-02 12:00:00 4.9 16 Sudeste 22 Sudeste 0 848 -- 67
2021-02-02 11:00:00 6.2 3 Sudoeste 15 Oeste 0 848.1 -- 64
2021-02-02 10:00:00 4.9 8 Oeste 20 Oeste 0 848.1 -- 74
2021-02-02 09:00:00 4.6 14 Oeste 34 Noroeste 0 848.1 -- 76
2021-02-02 08:00:00 4.8 23 Noroeste 41 Noroeste 0 847.3 -- 75
2021-02-02 07:00:00 4.9 30 Noroeste 50 Noroeste 0 847.3 -- 73
2021-02-02 06:00:00 4.8 33 Noroeste 62 Noroeste 0 847.2 -- 73
2021-02-02 05:00:00 5 41 Noroeste 57 Noroeste 0 847 -- 77
2021-02-02 04:00:00 5.3 35 Noroeste 50 Noroeste 0 847.5 -- 79
2021-02-02 03:00:00 5.2 31 Noroeste 46 Oeste 0 847.4 -- 79
2021-02-02 02:00:00 5.1 27 Noroeste 39 Oeste 0 847.7 -- 78
2021-02-02 01:00:00 5.1 24 Noroeste 52 Oeste 0 847.9 -- 75
2021-02-02 00:00:00 5.6 36 Noroeste 51 Noroeste 0 847.4 -- 71
2021-02-01 23:00:00 5.4 31 Noroeste 49 Oeste 0 847.8 -- 66
2021-02-01 22:00:00 5.4 33 Noroeste 59 Oeste 0 847.4 -- 65
2021-02-01 21:00:00 4.6 41 Noroeste 64 Noroeste 0 846.9 -- 72
2021-02-01 20:00:00 4.2 44 Noroeste 61 Noroeste 0 846.6 -- 74
2021-02-01 19:00:00 4 39 Noroeste 64 Noroeste 0 846.5 -- 71
2021-02-01 18:00:00 4.5 44 Noroeste 78 Noroeste 0 846.1 -- 66
2021-02-01 17:00:00 5.2 51 Noroeste 77 Oeste 0 845.1 -- 60
2021-02-01 16:00:00 4.9 51 Noroeste 76 Noroeste 0 845.3 -- 63
2021-02-01 15:00:00 5.2 49 Noroeste 78 Oeste 0 845.2 -- 63
2021-02-01 14:00:00 4.8 51 Noroeste 83 Oeste 0 845 -- 69
2021-02-01 13:00:00 5.1 54 Noroeste 82 Oeste 0 844.9 -- 67
2021-02-01 12:00:00 4.4 47 Noroeste 73 Noroeste 0 845.3 -- 73
2021-02-01 11:00:00 3 48 Noroeste 77 Oeste 0 844.6 -- 80
2021-02-01 10:00:00 2.1 49 Noroeste 80 Noroeste 0 844.4 -- 80
2021-02-01 09:00:00 1.9 47 Noroeste 74 Noroeste 0 844.2 -- 80
2021-02-01 08:00:00 1.9 44 Noroeste 69 Oeste 0 843.7 -- 80
2021-02-01 07:00:00 2 48 Noroeste 73 Noroeste 0 843.4 -- 79
2021-02-01 06:00:00 2.2 48 Noroeste 82 Noroeste 0 843 -- 78
2021-02-01 05:00:00 2.1 46 Noroeste 78 Noroeste 0 843 -- 79
2021-02-01 04:00:00 2.5 51 Noroeste 85 Noroeste 0 842.5 -- 77
2021-02-01 03:00:00 3 55 Noroeste 86 Noroeste 0 841.9 -- 75
2021-02-01 02:00:00 3.6 57 Noroeste 97 Noroeste 0 841.6 -- 74
2021-02-01 01:00:00 4.1 50 Noroeste 92 Noroeste 0 842.4 -- 72
2021-02-01 00:00:00 4.6 53 Noroeste 85 Noroeste 0 842.3 -- 70
2021-01-31 23:00:00 4.7 46 Noroeste 87 Noroeste 0 842.7 -- 69
2021-01-31 22:00:00 5 48 Noroeste 77 Oeste 0 842.3 -- 74
2021-01-31 21:00:00 5 41 Noroeste 70 Noroeste 0 842.6 -- 80
2021-01-31 20:00:00 5.4 42 Noroeste 69 Oeste 0 842.8 -- 80
2021-01-31 19:00:00 5.8 47 Noroeste 76 Noroeste 0 842.7 -- 80
2021-01-31 18:00:00 6.4 47 Noroeste 82 Noroeste 0 842.3 -- 80
2021-01-31 17:00:00 6.4 49 Noroeste 85 Noroeste 0 842.4 -- 80
2021-01-31 16:00:00 6.1 51 Noroeste 98 Noroeste 0.3 842.5 -- 80
2021-01-31 15:00:00 6 51 Noroeste 91 Noroeste 0.4 842.5 -- 80
2021-01-31 14:00:00 5.9 53 Noroeste 88 Noroeste 0.9 842.7 -- 80
2021-01-31 13:00:00 5.7 48 Noroeste 83 Noroeste 1.2 843.2 -- 80
2021-01-31 12:00:00 4.9 44 Noroeste 69 Oeste 1 843.7 -- 80
2021-01-31 11:00:00 3.8 46 Noroeste 67 Noroeste 2.1 843.7 -- 80
2021-01-31 10:00:00 2.7 41 Noroeste 66 Oeste 1.1 843.9 -- 81
2021-01-31 09:00:00 1.9 37 Noroeste 60 Noroeste 3 843.7 -- 81
2021-01-31 08:00:00 1.4 34 Noroeste 61 Noroeste 0.7 843.6 -- 81
2021-01-31 07:00:00 0.7 40 Noroeste 71 Noroeste 0.1 843 -- 81
2021-01-31 06:00:00 0.4 44 Noroeste 82 Noroeste 0 842.3 -- 81
2021-01-31 05:00:00 0 51 Noroeste 85 Oeste 0 841.7 -- 81
2021-01-31 04:00:00 0 57 Noroeste 89 Oeste 0 841.1 -- 81
2021-01-31 03:00:00 -0.1 58 Noroeste 93 Noroeste 0 841.2 -- 81
2021-01-31 02:00:00 0 59 Noroeste 90 Noroeste 0 841.1 -- 81
2021-01-31 01:00:00 0.4 54 Noroeste 94 Noroeste 0 841.5 -- 81
2021-01-31 00:00:00 0.4 65 Noroeste 106 Oeste 0 840.1 -- 81